Terminal Aerodrome Forecast
Issued by NWS Bismarck, ND

Home | Current Version | Previous Version | Text Only | Print | Product List | Glossary Off
Versions: 1 2 3 4 5 6 7 8 9 10 11 12 13 14

573
FTUS43 KBIS 211721
TAFISN
TAF
KISN 211721Z 2118/2218 17009KT P6SM FEW015 BKN250
     FM220700 18005KT P6SM SCT250
     FM221000 36004KT P6SM SCT070 BKN150
     FM221400 01008KT P6SM SCT015 BKN090=

USA.gov is the U.S. government's official web portal to all federal, state and local government web resources and services.